Mauston, WI

5:08 AM CDT on August 31, 2015 (GMT -0500)
Juneau County Weather | | Change Station
CLOSE
Current Station
Personal Weather Station
Location: Mauston, WI
Elevation: 873 ft
Nearby Weather Stations
Active Advisory: Special Statement

Elev 873 ft 43.80 °N, 90.07 °W | Updated 26 seconds ago

Fog
Fog
58.6 °F
Feels Like 58.6 °F
N
0.0
Wind Variable Wind from SSW
Gusts 0.0 mph

Today
High -- | Low -- °F
--% Chance of Precip.
Yesterday
High -- | Low -- °F
Precip. -- in
6:22 AM 7:38 PM
Waning Gibbous, 96% visible
Pressure 30.01 in
Visibility 0.5 miles
Clouds
Dew Point 58 °F
Humidity 96%
Rainfall 0.00 in
Snow Depth Not available.
UV 0.0 out of 12
Pollen 9.50 out of 12
Air Quality Not available.
Flu Activity Not available.
METAR KVOK 310951Z AUTO 11003KT 1/2SM R27/0900FT FG VV001 12/12 A3001 RMK AO2
Pressure 30.01 in
Visibility 0.5 miles
Clouds
Dew Point 58 °F
Humidity 96%
Rainfall 0.00 in
Snow Depth Not available.
UV 0.0 out of 12
Pollen 9.50 out of 12
Air Quality Not available.
Flu Activity Not available.
METAR KVOK 310951Z AUTO 11003KT 1/2SM R27/0900FT FG VV001 12/12 A3001 RMK AO2

10-Day Weather Forecast

×

Almanac

Astronomy

Aug. 31, 2015 Rise Set
Actual Time
Civil Twilight
Nautical Twilight
Astronomical Twilight
Moon
Length of Visible Light
Length of Day
Tomorrow will be .
, % of the Moon is Illuminated

Today's Extremes

State Highs State Lows

Community

WunderPhotos

Upload Photos

1,851,229 photos uploaded!

WunderBlogs® & News

Nearby

Air Quality

  Air Quality AQ Index Pollutant
Not available.

Snow Depth

Station Depth Elevation

Earthquake Activity

City Distance Mag. Time & Date
Minimum magnitude displayed is 2.5.

Coastal Water Temperatures

Place Temperature

Stations

Nearby Weather Stations

Station Location Temp. Windchill Dew Point Humidity Wind Precip. Elev Updated Type
                   
Special Statement
Statement as of 5:04 AM CDT on August 31, 2015

... Areas of dense fog early this morning...

Watch out for areas of dense fog early this morning. Visibility
may be reduced to 1/4 mile at times which could impact travel. Slow
down and use caution.


Das


504 am CDT Mon Aug 31 2015

... Areas of dense fog early this morning...

Watch out for areas of dense fog early this morning. Visibility
may be reduced to 1/4 mile at times which could impact travel. Slow
down and use caution.


Das